createdAt,value
2019-02-17T00:02:50.424Z,124.90
2019-02-17T00:05:44.544Z,131.30
2019-02-17T00:08:38.700Z,118.03
2019-02-17T00:11:33.122Z,130.93
2019-02-17T00:14:27.828Z,156.30
2019-02-17T00:17:22.169Z,168.53
2019-02-17T00:20:16.447Z,190.63
2019-02-17T00:23:10.849Z,167.40
2019-02-17T00:26:04.957Z,128.90
2019-02-17T00:28:59.948Z,107.57
2019-02-17T00:31:54.505Z,140.27
2019-02-17T00:34:49.914Z,118.10
2019-02-17T00:37:44.311Z,154.93
2019-02-17T00:40:38.517Z,145.60
2019-02-17T00:43:32.539Z,189.20
2019-02-17T00:46:26.782Z,126.83
2019-02-17T00:49:21.180Z,121.47
2019-02-17T00:52:15.487Z,117.20
2019-02-17T00:55:09.876Z,113.40
2019-02-17T00:58:04.395Z,122.73
2019-02-17T01:00:58.646Z,144.20
2019-02-17T01:03:52.808Z,164.37
2019-02-17T01:06:47.059Z,162.87
2019-02-17T01:09:41.245Z,143.50
2019-02-17T01:12:35.391Z,126.97
2019-02-17T01:15:29.875Z,118.50
2019-02-17T01:18:24.083Z,167.57
2019-02-17T01:21:18.108Z,157.37
2019-02-17T01:24:12.541Z,135.10
2019-02-17T01:27:07.062Z,156.80
2019-02-17T01:30:01.614Z,159.57
2019-02-17T01:32:56.145Z,147.87
2019-02-17T01:35:50.751Z,163.47
2019-02-17T01:38:45.414Z,151.17
2019-02-17T01:41:39.838Z,154.47
2019-02-17T01:44:34.308Z,191.53
2019-02-17T01:47:28.472Z,134.50
2019-02-17T01:50:23.067Z,141.73
2019-02-17T01:53:17.619Z,137.37
2019-02-17T01:56:11.705Z,135.07
2019-02-17T01:59:06.064Z,119.70
2019-02-17T02:02:00.144Z,121.97
2019-02-17T02:04:54.498Z,96.30
2019-02-17T02:07:48.940Z,119.77
2019-02-17T02:10:41.389Z,127.47
2019-02-17T02:13:35.586Z,127.83
2019-02-17T02:16:29.663Z,134.70
2019-02-17T02:19:23.895Z,100.93
2019-02-17T02:22:18.481Z,121.40
2019-02-17T02:25:12.770Z,113.70
2019-02-17T02:28:07.217Z,133.23
2019-02-17T02:31:01.589Z,123.40
2019-02-17T02:33:55.706Z,128.20
2019-02-17T02:36:49.962Z,141.13
2019-02-17T02:39:45.146Z,100.27
2019-02-17T02:42:39.636Z,118.93
2019-02-17T02:45:34.120Z,126.73
2019-02-17T02:48:28.318Z,124.70
2019-02-17T02:51:22.682Z,106.50
2019-02-17T02:54:17.295Z,110.40
2019-02-17T02:57:11.892Z,98.40
2019-02-17T03:00:06.983Z,84.70
2019-02-17T03:03:01.464Z,88.87
2019-02-17T03:06:04.593Z,108.90
2019-02-17T03:08:59.281Z,103.03
2019-02-17T03:11:54.368Z,110.47
2019-02-17T03:14:48.611Z,106.90
2019-02-17T03:17:43.172Z,118.10
2019-02-17T03:20:37.926Z,88.37
2019-02-17T03:23:32.421Z,102.93
2019-02-17T03:26:26.618Z,88.90
2019-02-17T03:29:20.708Z,94.00
2019-02-17T03:32:15.475Z,102.27
2019-02-17T03:35:10.318Z,107.07
2019-02-17T03:38:04.677Z,110.47
2019-02-17T03:40:59.009Z,102.10
2019-02-17T03:43:53.373Z,80.97
2019-02-17T03:46:47.844Z,107.80
2019-02-17T03:49:42.563Z,94.60
2019-02-17T03:52:36.821Z,95.90
2019-02-17T03:55:31.583Z,97.50
2019-02-17T03:58:26.127Z,81.03
2019-02-17T04:01:21.481Z,97.60
2019-02-17T04:04:15.727Z,95.07
2019-02-17T04:07:10.217Z,107.90
2019-02-17T04:10:04.914Z,72.67
2019-02-17T04:12:59.296Z,96.40
2019-02-17T04:15:53.788Z,97.27
2019-02-17T04:18:48.466Z,109.77
2019-02-17T04:21:43.209Z,87.90
2019-02-17T04:24:37.781Z,92.87
2019-02-17T04:27:32.381Z,86.50
2019-02-17T04:30:29.550Z,95.50
2019-02-17T04:33:23.473Z,86.03
2019-02-17T04:36:17.582Z,84.40
2019-02-17T04:39:11.938Z,92.57
2019-02-17T04:42:06.676Z,96.57
2019-02-17T04:45:01.151Z,98.40
2019-02-17T04:47:53.458Z,89.47
2019-02-17T04:50:47.805Z,115.63
2019-02-17T04:53:42.114Z,116.97
2019-02-17T04:56:36.471Z,113.40
2019-02-17T04:59:30.574Z,96.13
2019-02-17T05:02:24.773Z,105.17
2019-02-17T05:05:19.403Z,105.60
2019-02-17T05:08:13.779Z,109.90
2019-02-17T05:11:08.158Z,108.00
2019-02-17T05:14:02.392Z,113.42
2019-02-17T05:16:55.685Z,103.37
2019-02-17T05:19:50.368Z,114.37
2019-02-17T05:22:45.288Z,103.30
2019-02-17T05:25:39.464Z,106.67
2019-02-17T05:28:34.450Z,102.50
2019-02-17T05:31:28.887Z,108.07
2019-02-17T05:34:24.469Z,98.33
2019-02-17T05:37:20.261Z,82.90
2019-02-17T05:40:15.055Z,110.80
2019-02-17T05:43:09.213Z,109.13
2019-02-17T05:46:03.733Z,108.60
2019-02-17T05:48:57.997Z,88.73
2019-02-17T05:51:52.140Z,118.37
2019-02-17T05:54:46.378Z,91.20
2019-02-17T05:57:40.589Z,109.43
2019-02-17T06:00:36.431Z,100.60
2019-02-17T06:03:30.755Z,111.53
2019-02-17T06:06:24.869Z,109.20
2019-02-17T06:09:19.103Z,103.77
2019-02-17T06:12:14.144Z,78.90
2019-02-17T06:15:08.663Z,109.05
2019-02-17T06:18:07.331Z,80.00
2019-02-17T06:21:04.092Z,104.13
2019-02-17T06:23:58.680Z,78.02
2019-02-17T06:26:53.346Z,89.20
2019-02-17T06:29:49.093Z,97.23
2019-02-17T06:32:43.780Z,100.93
2019-02-17T06:35:38.234Z,103.72
2019-02-17T06:38:33.063Z,102.73
2019-02-17T06:41:27.386Z,96.47
2019-02-17T06:44:21.951Z,98.97
2019-02-17T06:47:24.216Z,100.33
2019-02-17T06:50:19.828Z,97.13
2019-02-17T06:53:14.386Z,97.07
2019-02-17T06:56:17.342Z,105.87
2019-02-17T06:59:12.097Z,90.83
2019-02-17T07:02:07.662Z,82.17
2019-02-17T07:05:14.549Z,63.50
2019-02-17T07:08:10.247Z,65.20
2019-02-17T07:11:04.745Z,70.00
2019-02-17T07:13:59.075Z,64.53
2019-02-17T07:16:54.870Z,89.83
2019-02-17T07:19:49.289Z,85.27
2019-02-17T07:22:44.112Z,61.10
2019-02-17T07:25:38.547Z,82.47
2019-02-17T07:28:33.328Z,64.43
2019-02-17T07:31:34.606Z,61.80
2019-02-17T07:34:25.047Z,64.30
2019-02-17T07:37:20.859Z,59.60
2019-02-17T07:40:15.555Z,83.67
2019-02-17T07:45:57.765Z,59.65
2019-02-17T07:48:52.313Z,60.43
2019-02-17T07:51:46.833Z,68.55
2019-02-17T07:54:41.610Z,74.00
2019-02-17T07:57:36.126Z,54.57
2019-02-17T08:00:30.681Z,62.67
2019-02-17T08:03:25.516Z,61.83
2019-02-17T08:06:21.919Z,62.17
2019-02-17T08:09:16.619Z,56.27
2019-02-17T08:12:11.003Z,57.57
2019-02-17T08:17:55.368Z,65.67
2019-02-17T08:20:49.707Z,70.90
2019-02-17T08:23:44.308Z,59.30
2019-02-17T08:26:39.970Z,68.30
2019-02-17T08:29:34.225Z,67.53
2019-02-17T08:32:28.794Z,58.60
2019-02-17T08:35:23.273Z,63.52
2019-02-17T08:38:17.834Z,64.23
2019-02-17T08:41:12.030Z,61.05
2019-02-17T08:44:06.204Z,63.17
2019-02-17T08:46:58.700Z,63.37
2019-02-17T08:52:43.349Z,68.33
2019-02-17T08:58:28.350Z,73.87
2019-02-17T09:01:22.566Z,64.77
2019-02-17T09:04:10.915Z,73.33
2019-02-17T09:07:06.422Z,65.00
2019-02-17T09:10:00.712Z,74.07
2019-02-17T09:12:55.026Z,66.70
2019-02-17T09:15:49.576Z,60.73
2019-02-17T09:18:43.595Z,64.00
2019-02-17T09:21:38.142Z,67.80
2019-02-17T09:24:32.502Z,56.83
2019-02-17T09:27:26.978Z,69.43
2019-02-17T09:30:21.523Z,76.10
2019-02-17T09:33:16.085Z,83.40
2019-02-17T09:36:10.497Z,67.60
2019-02-17T09:39:05.939Z,70.60
2019-02-17T09:42:00.518Z,77.10
2019-02-17T09:44:54.962Z,71.13
2019-02-17T09:47:49.805Z,64.80
2019-02-17T09:50:44.051Z,71.50
2019-02-17T09:53:38.244Z,72.80
2019-02-17T09:56:32.848Z,74.07
2019-02-17T09:59:27.005Z,76.73
2019-02-17T10:02:26.641Z,82.53
2019-02-17T10:05:17.092Z,61.95
2019-02-17T10:08:11.275Z,77.53
2019-02-17T10:11:05.772Z,59.70
2019-02-17T10:14:00.099Z,61.27
2019-02-17T10:16:54.527Z,77.30
2019-02-17T10:19:48.968Z,71.70
2019-02-17T10:22:43.416Z,72.23
2019-02-17T10:25:37.971Z,71.17
2019-02-17T10:28:41.832Z,72.90
2019-02-17T10:31:28.284Z,76.30
2019-02-17T10:34:22.717Z,78.67
2019-02-17T10:37:17.159Z,70.07
2019-02-17T10:40:13.414Z,78.17
2019-02-17T10:43:07.727Z,80.73
2019-02-17T10:46:02.592Z,81.57
2019-02-17T10:48:57.401Z,75.07
2019-02-17T10:51:52.039Z,87.47
2019-02-17T10:54:45.365Z,80.37
2019-02-17T10:57:39.792Z,75.83
2019-02-17T11:00:34.532Z,80.87
2019-02-17T11:03:29.292Z,79.80
2019-02-17T11:06:23.694Z,80.80
2019-02-17T11:09:25.671Z,80.80
2019-02-17T11:12:19.918Z,79.97
2019-02-17T11:15:16.828Z,49.20
2019-02-17T11:18:11.851Z,77.43
2019-02-17T11:21:06.041Z,60.67
2019-02-17T11:24:00.744Z,81.83
2019-02-17T11:26:55.234Z,79.27
2019-02-17T11:29:50.004Z,80.22
2019-02-17T11:32:44.547Z,74.27
2019-02-17T11:35:39.292Z,72.73
2019-02-17T11:38:33.750Z,46.30
2019-02-17T11:41:28.046Z,70.40
2019-02-17T11:44:16.699Z,71.27
2019-02-17T11:47:11.586Z,69.37
2019-02-17T11:50:06.964Z,74.73
2019-02-17T11:53:01.450Z,69.13
2019-02-17T11:55:57.410Z,73.23
2019-02-17T11:58:52.008Z,59.63
2019-02-17T12:01:46.619Z,71.60
2019-02-17T12:04:41.138Z,63.33
2019-02-17T12:07:35.509Z,63.93
2019-02-17T12:10:30.086Z,59.57
2019-02-17T12:13:25.144Z,70.17
2019-02-17T12:16:19.967Z,61.73
2019-02-17T12:19:14.698Z,57.25
2019-02-17T12:22:25.972Z,70.60
2019-02-17T12:25:29.358Z,46.50
2019-02-17T12:28:39.306Z,63.13
2019-02-17T12:31:37.552Z,67.57
2019-02-17T12:34:32.116Z,59.23
2019-02-17T12:37:25.553Z,64.53
2019-02-17T12:40:19.802Z,67.70
2019-02-17T12:43:14.419Z,64.55
2019-02-17T12:46:08.770Z,61.98
2019-02-17T12:49:03.298Z,51.30
2019-02-17T12:51:59.275Z,62.60
2019-02-17T12:54:54.728Z,49.27
2019-02-17T12:57:49.675Z,58.53
2019-02-17T13:00:44.504Z,64.13
2019-02-17T13:03:39.129Z,59.43
2019-02-17T13:06:33.857Z,55.70
2019-02-17T13:09:28.553Z,62.23
2019-02-17T13:12:23.215Z,60.97
2019-02-17T13:15:17.925Z,60.27
2019-02-17T13:18:12.495Z,62.57
2019-02-17T13:21:08.066Z,60.83
2019-02-17T13:24:02.730Z,54.18
2019-02-17T13:26:57.365Z,65.60
2019-02-17T13:29:51.562Z,57.00
2019-02-17T13:32:45.799Z,61.57
2019-02-17T13:35:40.094Z,59.03
2019-02-17T13:38:34.236Z,61.60
2019-02-17T13:41:28.874Z,64.63
2019-02-17T13:44:23.223Z,64.75
2019-02-17T13:47:17.522Z,61.03
2019-02-17T13:50:13.422Z,69.07
2019-02-17T13:53:11.875Z,63.73
2019-02-17T13:56:03.454Z,57.43
2019-02-17T13:58:58.273Z,58.40
2019-02-17T14:01:52.990Z,53.70
2019-02-17T14:04:47.406Z,62.80
2019-02-17T14:07:41.981Z,60.55
2019-02-17T14:10:36.467Z,61.77
2019-02-17T14:13:30.963Z,67.47
2019-02-17T14:16:25.176Z,65.90
2019-02-17T14:19:19.607Z,67.80
2019-02-17T14:22:13.906Z,60.57
2019-02-17T14:25:10.969Z,68.10
2019-02-17T14:28:05.807Z,51.87
2019-02-17T14:31:00.294Z,59.93
2019-02-17T14:33:58.493Z,69.63
2019-02-17T14:36:50.223Z,62.50
2019-02-17T14:39:44.637Z,63.42
2019-02-17T14:42:39.317Z,60.70
2019-02-17T14:45:34.128Z,67.07
2019-02-17T14:48:28.792Z,64.17
2019-02-17T14:51:22.229Z,77.67
2019-02-17T14:54:18.529Z,67.70
2019-02-17T14:57:13.203Z,66.92
2019-02-17T15:00:08.176Z,71.63
2019-02-17T15:03:03.084Z,71.23
2019-02-17T15:05:57.669Z,75.90
2019-02-17T15:08:52.232Z,69.53
2019-02-17T15:11:47.326Z,73.40
2019-02-17T15:14:41.775Z,69.33
2019-02-17T15:17:36.267Z,70.47
2019-02-17T15:20:32.203Z,68.55
2019-02-17T15:23:26.568Z,60.10
2019-02-17T15:26:21.650Z,59.03
2019-02-17T15:29:16.748Z,62.45
2019-02-17T15:32:11.407Z,65.45
2019-02-17T15:35:05.943Z,77.10
2019-02-17T15:38:00.350Z,62.67
2019-02-17T15:40:54.702Z,52.17
2019-02-17T15:43:50.969Z,68.43
2019-02-17T15:46:45.516Z,67.07
2019-02-17T15:49:40.077Z,49.37
2019-02-17T15:52:35.518Z,62.40
2019-02-17T15:55:29.965Z,60.47
2019-02-17T15:58:24.234Z,62.27
2019-02-17T16:01:18.836Z,58.20
2019-02-17T16:04:13.168Z,57.98
2019-02-17T16:07:07.621Z,57.23
2019-02-17T16:10:03.779Z,61.83
2019-02-17T16:12:57.913Z,57.17
2019-02-17T16:15:52.645Z,61.10
2019-02-17T16:18:47.389Z,58.20
2019-02-17T16:21:42.530Z,67.83
2019-02-17T16:24:36.755Z,62.30
2019-02-17T16:27:31.022Z,63.93
2019-02-17T16:30:25.499Z,58.50
2019-02-17T16:33:20.544Z,49.70
2019-02-17T16:36:15.355Z,60.77
2019-02-17T16:39:14.923Z,59.90
2019-02-17T16:42:09.625Z,50.73
2019-02-17T16:45:04.014Z,61.13
2019-02-17T16:47:58.544Z,64.23
2019-02-17T16:50:53.277Z,62.10
2019-02-17T16:53:47.980Z,58.93
2019-02-17T16:56:42.277Z,78.27
2019-02-17T16:59:37.351Z,47.10
2019-02-17T17:02:32.071Z,55.30
2019-02-17T17:05:26.885Z,50.23
2019-02-17T17:08:22.597Z,55.57
2019-02-17T17:11:16.918Z,58.00
2019-02-17T17:14:11.257Z,60.38
2019-02-17T17:17:05.805Z,49.35
2019-02-17T17:20:00.273Z,51.13
2019-02-17T17:22:54.784Z,53.43
2019-02-17T17:25:48.950Z,49.23
2019-02-17T17:28:43.486Z,50.35
2019-02-17T17:31:38.022Z,48.33
2019-02-17T17:34:34.172Z,53.70
2019-02-17T17:37:28.474Z,57.23
2019-02-17T17:40:22.688Z,56.77
2019-02-17T17:43:16.933Z,51.30
2019-02-17T17:46:12.432Z,59.17
2019-02-17T17:49:07.322Z,54.97
2019-02-17T17:52:01.582Z,52.17
2019-02-17T17:54:56.123Z,53.67
2019-02-17T17:57:50.712Z,51.83
2019-02-17T18:00:45.415Z,57.13
2019-02-17T18:03:39.778Z,56.85
2019-02-17T18:06:34.075Z,52.17
2019-02-17T18:09:28.611Z,58.07
2019-02-17T18:12:22.833Z,62.53
2019-02-17T18:15:17.331Z,55.13
2019-02-17T18:18:11.709Z,55.90
2019-02-17T18:21:06.301Z,77.62
2019-02-17T18:24:00.831Z,64.10
2019-02-17T18:26:57.101Z,66.80
2019-02-17T18:29:51.680Z,66.50
2019-02-17T18:32:45.977Z,73.00
2019-02-17T18:35:40.825Z,77.50
2019-02-17T18:38:35.339Z,63.07
2019-02-17T18:41:30.639Z,65.97
2019-02-17T18:44:25.347Z,84.87
2019-02-17T18:47:19.968Z,70.57
2019-02-17T18:50:16.048Z,80.77
2019-02-17T18:53:11.794Z,92.23
2019-02-17T18:56:06.178Z,77.97
2019-02-17T18:59:00.303Z,78.27
2019-02-17T19:01:55.284Z,77.47
2019-02-17T19:04:49.718Z,85.33
2019-02-17T19:07:44.125Z,103.67
2019-02-17T19:10:38.426Z,77.33
2019-02-17T19:13:33.273Z,83.87
2019-02-17T19:16:27.548Z,78.67
2019-02-17T19:19:22.328Z,83.37
2019-02-17T19:22:16.699Z,107.30
2019-02-17T19:25:11.778Z,80.10
2019-02-17T19:28:06.196Z,77.40
2019-02-17T19:31:01.233Z,79.23
2019-02-17T19:33:56.237Z,79.70
2019-02-17T19:36:52.632Z,72.07
2019-02-17T19:39:47.219Z,70.93
2019-02-17T19:42:42.463Z,73.10
2019-02-17T19:45:35.874Z,69.00
2019-02-17T19:48:30.338Z,59.33
2019-02-17T19:51:24.585Z,63.10
2019-02-17T19:54:20.022Z,66.63
2019-02-17T19:57:14.462Z,68.67
2019-02-17T20:00:10.715Z,64.77
2019-02-17T20:03:22.193Z,66.90
2019-02-17T20:06:19.215Z,59.67
2019-02-17T20:09:21.781Z,61.70
2019-02-17T20:12:16.407Z,59.03
2019-02-17T20:15:10.786Z,61.53
2019-02-17T20:18:04.972Z,61.40
2019-02-17T20:20:59.454Z,63.20
2019-02-17T20:23:53.994Z,75.67
2019-02-17T20:26:48.181Z,65.17
2019-02-17T20:29:42.501Z,72.73
2019-02-17T20:32:37.120Z,75.20
2019-02-17T20:35:31.285Z,80.30
2019-02-17T20:38:25.582Z,80.70
2019-02-17T20:41:20.009Z,85.93
2019-02-17T20:44:14.017Z,78.17
2019-02-17T20:47:08.490Z,78.63
2019-02-17T20:50:02.833Z,78.40
2019-02-17T20:52:57.684Z,87.93
2019-02-17T20:55:51.665Z,91.63
2019-02-17T20:58:45.904Z,89.07
2019-02-17T21:01:40.271Z,99.13
2019-02-17T21:04:34.840Z,113.30
2019-02-17T21:07:29.455Z,97.90
2019-02-17T21:10:24.009Z,95.23
2019-02-17T21:13:18.569Z,122.67
2019-02-17T21:16:13.337Z,121.43
2019-02-17T21:19:07.804Z,122.27
2019-02-17T21:22:02.070Z,123.90
2019-02-17T21:24:56.398Z,126.27
2019-02-17T21:27:50.804Z,150.83
2019-02-17T21:30:45.822Z,122.37
2019-02-17T21:33:40.325Z,150.57
2019-02-17T21:36:34.472Z,113.97
2019-02-17T21:39:28.679Z,124.63
2019-02-17T21:42:23.065Z,137.13
2019-02-17T21:45:17.618Z,129.43
2019-02-17T21:48:11.868Z,140.33
2019-02-17T21:51:06.086Z,127.63
2019-02-17T21:54:00.498Z,139.83
2019-02-17T21:56:54.942Z,132.20
2019-02-17T21:59:49.870Z,119.97
2019-02-17T22:02:44.347Z,167.80
2019-02-17T22:05:38.774Z,129.53
2019-02-17T22:08:33.050Z,131.23
2019-02-17T22:11:27.675Z,122.33
2019-02-17T22:14:21.945Z,111.50
2019-02-17T22:17:16.606Z,153.13
2019-02-17T22:20:11.537Z,104.07
2019-02-17T22:23:05.999Z,145.23
2019-02-17T22:26:00.255Z,101.90
2019-02-17T22:28:54.668Z,103.50
2019-02-17T22:31:49.240Z,108.73
2019-02-17T22:34:43.981Z,94.07
2019-02-17T22:37:38.377Z,90.33
2019-02-17T22:40:32.977Z,94.33
2019-02-17T22:43:28.069Z,83.13
2019-02-17T22:46:22.347Z,79.47
2019-02-17T22:49:16.873Z,96.10
2019-02-17T22:52:11.891Z,131.70
2019-02-17T22:55:06.320Z,127.70
2019-02-17T22:58:01.039Z,117.03
2019-02-17T23:01:03.186Z,112.37
2019-02-17T23:03:58.948Z,126.33
2019-02-17T23:06:54.357Z,119.50
2019-02-17T23:09:48.787Z,119.93
2019-02-17T23:12:43.504Z,108.33
2019-02-17T23:15:37.898Z,107.80
2019-02-17T23:18:32.981Z,110.03
2019-02-17T23:21:27.536Z,94.50
2019-02-17T23:24:22.343Z,92.33
2019-02-17T23:27:16.280Z,92.00
2019-02-17T23:30:10.868Z,88.43
2019-02-17T23:33:05.116Z,76.17
2019-02-17T23:35:59.588Z,98.13
2019-02-17T23:38:54.121Z,93.23
2019-02-17T23:41:48.635Z,76.03
2019-02-17T23:44:43.099Z,83.57
2019-02-17T23:47:37.854Z,68.60
2019-02-17T23:50:32.405Z,75.53
2019-02-17T23:53:26.858Z,100.73
2019-02-17T23:56:21.381Z,95.93
2019-02-17T23:59:15.892Z,92.03
